Time;durP1;ratioP1;P1;durP2;ratioP2;P2;SDS_P1;SDS_P2;PMS_P1;PMS_P2;Temp;Humidity;BMP_temperature;BMP_pressure;BME280_temperature;BME280_humidity;BME280_pressure;Samples;Min_cycle;Max_cycle;Signal;HPM_P1;HPM_P2
2021/04/24 00:00:37;;;;;;;8.57;4.67;;;1.80;99.90;;;;;;2097521;28;20910;-67
2021/04/24 00:01:39;;;;;;;7.25;4.78;;;1.80;99.90;;;;;;2097151;28;20191;-68
2021/04/24 00:02:44;;;;;;;8.77;4.47;;;1.80;99.90;;;;;;2096995;28;20183;-68
2021/04/24 00:03:45;;;;;;;6.40;4.30;;;1.70;99.90;;;;;;2097233;28;20202;-68
2021/04/24 00:04:46;;;;;;;7.80;4.50;;;1.70;99.90;;;;;;2098125;28;20184;-67
2021/04/24 00:05:47;;;;;;;9.13;4.80;;;1.70;99.90;;;;;;2098037;28;20175;-68
2021/04/24 00:06:48;;;;;;;9.67;4.47;;;1.70;99.90;;;;;;2097518;28;20182;-68
2021/04/24 00:08:01;;;;;;;9.43;4.53;;;1.70;99.90;;;;;;2097471;28;20486;-68
2021/04/24 00:09:06;;;;;;;12.82;4.90;;;1.70;99.90;;;;;;2097387;28;20269;-68
2021/04/24 00:10:08;;;;;;;9.05;4.65;;;1.60;99.90;;;;;;2089889;28;20221;-68
2021/04/24 00:11:08;;;;;;;6.65;4.15;;;1.60;99.90;;;;;;2097341;28;20182;-68
2021/04/24 00:12:09;;;;;;;8.97;4.97;;;1.60;99.90;;;;;;2098017;28;20190;-67
2021/04/24 00:13:12;;;;;;;8.83;5.10;;;1.60;99.90;;;;;;2097900;28;20232;-68
2021/04/24 00:14:13;;;;;;;9.07;4.85;;;1.60;99.90;;;;;;2097377;28;20638;-67
2021/04/24 00:15:15;;;;;;;7.20;4.60;;;1.50;99.90;;;;;;2097409;28;20181;-68
2021/04/24 00:16:16;;;;;;;8.73;4.45;;;1.60;99.90;;;;;;2098031;28;20654;-67
2021/04/24 00:17:17;;;;;;;7.83;4.77;;;1.60;99.90;;;;;;2097858;28;20209;-68
2021/04/24 00:18:17;;;;;;;10.20;4.80;;;1.50;99.90;;;;;;2097931;28;20425;-68
2021/04/24 00:19:18;;;;;;;8.20;4.50;;;1.50;99.90;;;;;;2097805;28;20183;-68
2021/04/24 00:20:22;;;;;;;12.13;4.80;;;1.50;99.90;;;;;;2097879;28;20180;-68
2021/04/24 00:21:22;;;;;;;10.02;5.18;;;1.50;99.90;;;;;;2096999;28;20179;-68
2021/04/24 00:22:23;;;;;;;9.90;4.60;;;1.50;99.90;;;;;;2097347;28;20557;-67
2021/04/24 00:23:24;;;;;;;7.90;4.33;;;1.50;99.90;;;;;;2097927;28;20180;-67
2021/04/24 00:24:24;;;;;;;7.50;4.63;;;1.50;99.90;;;;;;2097889;28;20183;-68
2021/04/24 00:25:25;;;;;;;8.00;4.53;;;1.50;99.90;;;;;;2097799;28;20179;-67
2021/04/24 00:26:27;;;;;;;10.63;4.47;;;1.50;99.90;;;;;;2097247;28;20252;-67
2021/04/24 00:27:27;;;;;;;9.07;4.50;;;1.50;99.90;;;;;;2097250;28;20617;-67
2021/04/24 00:28:28;;;;;;;8.17;4.93;;;1.40;99.90;;;;;;2098064;28;20191;-67
2021/04/24 00:29:29;;;;;;;9.40;5.20;;;1.40;99.90;;;;;;2097156;28;20255;-67
2021/04/24 00:30:30;;;;;;;8.13;4.43;;;1.40;99.90;;;;;;2097320;28;20272;-67
2021/04/24 00:31:31;;;;;;;9.98;5.00;;;1.40;99.90;;;;;;2097639;28;20706;-67
2021/04/24 00:32:32;;;;;;;10.30;4.63;;;1.30;99.90;;;;;;2097971;28;20187;-67
2021/04/24 00:33:33;;;;;;;8.20;4.47;;;1.40;99.90;;;;;;2097815;28;20179;-67
2021/04/24 00:34:34;;;;;;;9.07;4.80;;;1.30;99.90;;;;;;2097798;28;20202;-67
2021/04/24 00:35:35;;;;;;;9.97;4.63;;;1.30;99.90;;;;;;2097732;28;20210;-67
2021/04/24 00:36:36;;;;;;;10.10;4.90;;;1.30;99.90;;;;;;2097260;28;20693;-67
2021/04/24 00:37:37;;;;;;;11.40;5.33;;;1.30;99.90;;;;;;2097171;28;20479;-67
2021/04/24 00:38:37;;;;;;;10.13;4.82;;;1.30;99.90;;;;;;2098070;28;20189;-67
2021/04/24 00:39:38;;;;;;;8.40;4.53;;;1.20;99.90;;;;;;2097896;28;20204;-67
2021/04/24 00:40:39;;;;;;;9.33;4.90;;;1.20;99.90;;;;;;2097958;28;20180;-67
2021/04/24 00:41:40;;;;;;;9.03;4.97;;;1.30;99.90;;;;;;2097067;28;20178;-66
2021/04/24 00:42:41;;;;;;;9.17;4.97;;;1.20;99.90;;;;;;2089034;28;20615;-67
2021/04/24 00:43:42;;;;;;;8.45;4.45;;;1.20;99.90;;;;;;2097317;28;20177;-67
2021/04/24 00:44:48;;;;;;;11.93;6.00;;;1.20;99.90;;;;;;2097899;28;20279;-67
2021/04/24 00:45:48;;;;;;;9.30;4.82;;;1.20;99.90;;;;;;2097671;28;20538;-67
2021/04/24 00:46:49;;;;;;;9.70;4.87;;;1.20;99.90;;;;;;2097981;28;20240;-67
2021/04/24 00:47:52;;;;;;;9.63;4.27;;;1.10;99.90;;;;;;2097780;28;20562;-67
2021/04/24 00:48:53;;;;;;;8.88;5.35;;;1.10;99.90;;;;;;2097923;28;20548;-67
2021/04/24 00:49:53;;;;;;;11.33;4.73;;;1.10;99.90;;;;;;2097827;28;20186;-67
2021/04/24 00:50:54;;;;;;;9.00;4.80;;;1.10;99.90;;;;;;2097585;28;20177;-67
2021/04/24 00:51:55;;;;;;;12.90;4.63;;;1.10;99.90;;;;;;2097617;28;20196;-67
2021/04/24 00:52:57;;;;;;;12.27;4.77;;;1.10;99.90;;;;;;2097674;28;20583;-67
2021/04/24 00:53:57;;;;;;;9.20;4.68;;;1.10;99.90;;;;;;2097237;28;20194;-68
2021/04/24 00:54:58;;;;;;;8.27;4.40;;;1.10;99.90;;;;;;2097069;28;20237;-68
2021/04/24 00:55:59;;;;;;;8.93;4.63;;;1.10;99.90;;;;;;2097904;28;20786;-68
2021/04/24 00:57:01;;;;;;;10.43;4.37;;;1.10;99.90;;;;;;2097008;28;20194;-67
2021/04/24 00:58:04;;;;;;;9.52;4.97;;;1.10;99.90;;;;;;2097627;28;20189;-67
2021/04/24 00:59:04;;;;;;;8.88;4.53;;;1.10;99.90;;;;;;2097695;28;20187;-68
2021/04/24 01:00:09;;;;;;;10.50;4.57;;;1.10;99.90;;;;;;2097029;28;20745;-67
2021/04/24 01:01:09;;;;;;;9.40;4.82;;;1.10;99.90;;;;;;2089032;28;20188;-67
2021/04/24 01:02:10;;;;;;;7.80;4.63;;;1.00;99.90;;;;;;2096952;28;20185;-67
2021/04/24 01:03:11;;;;;;;7.60;4.40;;;1.00;99.90;;;;;;2097612;28;20203;-67
2021/04/24 01:04:11;;;;;;;6.90;4.40;;;1.00;99.90;;;;;;2095994;28;20183;-67
2021/04/24 01:05:17;;;;;;;9.30;5.10;;;1.00;99.90;;;;;;2090402;28;20222;-68
2021/04/24 01:06:18;;;;;;;8.65;4.68;;;1.00;99.90;;;;;;2089315;28;20530;-68
2021/04/24 01:07:18;;;;;;;8.43;4.77;;;1.00;99.90;;;;;;2089269;28;20185;-68
2021/04/24 01:08:19;;;;;;;11.13;4.87;;;1.00;99.90;;;;;;2089345;28;20210;-68
2021/04/24 01:09:20;;;;;;;10.93;5.13;;;1.00;99.90;;;;;;2089209;28;20214;-68
2021/04/24 01:10:21;;;;;;;9.70;5.00;;;1.00;99.90;;;;;;2089348;28;20187;-67
2021/04/24 01:11:22;;;;;;;11.82;5.20;;;1.00;99.90;;;;;;2088981;28;20202;-68
2021/04/24 01:12:23;;;;;;;11.23;5.10;;;1.00;99.90;;;;;;2089239;28;20620;-68
2021/04/24 01:13:23;;;;;;;8.70;5.03;;;1.00;99.90;;;;;;2089174;28;20199;-68
2021/04/24 01:14:25;;;;;;;8.07;4.97;;;1.00;99.90;;;;;;2089137;28;20258;-68
2021/04/24 01:15:26;;;;;;;11.63;6.00;;;1.00;99.90;;;;;;2089164;28;20183;-67
2021/04/24 01:16:27;;;;;;;7.82;5.35;;;1.00;99.90;;;;;;2089276;28;20710;-68
2021/04/24 01:17:28;;;;;;;11.63;5.03;;;1.00;99.90;;;;;;2089054;28;20218;-68
2021/04/24 01:18:29;;;;;;;7.43;4.87;;;1.00;99.90;;;;;;2089129;28;20215;-68
2021/04/24 01:19:30;;;;;;;9.63;4.90;;;1.00;99.90;;;;;;2088430;28;20186;-68
2021/04/24 01:20:33;;;;;;;11.18;5.18;;;1.00;99.90;;;;;;2080511;28;20647;-68
2021/04/24 01:21:37;;;;;;;12.40;5.22;;;1.00;99.90;;;;;;2080473;28;20184;-68
2021/04/24 01:22:41;;;;;;;9.00;5.10;;;0.90;99.90;;;;;;2080823;28;20183;-67
2021/04/24 01:23:42;;;;;;;9.20;4.35;;;0.90;99.90;;;;;;2088407;28;20195;-68
2021/04/24 01:24:44;;;;;;;10.90;4.67;;;0.90;99.90;;;;;;2089210;28;20191;-68
2021/04/24 01:25:45;;;;;;;7.15;4.57;;;0.90;99.90;;;;;;2088398;28;20565;-68
2021/04/24 01:26:47;;;;;;;8.30;5.20;;;0.90;99.90;;;;;;2088700;28;20193;-68
2021/04/24 01:27:50;;;;;;;10.55;4.63;;;0.90;99.90;;;;;;2088430;28;20294;-68
2021/04/24 01:28:52;;;;;;;8.10;5.13;;;0.90;99.90;;;;;;2080604;28;20184;-68
2021/04/24 01:29:53;;;;;;;8.60;4.65;;;0.90;99.90;;;;;;2088544;28;20187;-67
2021/04/24 01:30:53;;;;;;;11.33;4.90;;;0.80;99.90;;;;;;2089225;28;20183;-68
2021/04/24 01:31:54;;;;;;;9.70;5.23;;;0.80;99.90;;;;;;2088940;28;20253;-68
2021/04/24 01:32:56;;;;;;;10.02;4.93;;;0.80;99.90;;;;;;2088529;28;20668;-68
2021/04/24 01:33:57;;;;;;;6.13;4.45;;;0.80;99.90;;;;;;2088391;28;20712;-68
2021/04/24 01:34:58;;;;;;;10.00;5.00;;;0.70;99.90;;;;;;2089124;28;20283;-68
2021/04/24 01:35:58;;;;;;;9.97;4.43;;;0.70;99.90;;;;;;2089091;28;20183;-68
2021/04/24 01:37:00;;;;;;;8.80;5.67;;;0.70;99.90;;;;;;2089175;28;20180;-68
2021/04/24 01:38:03;;;;;;;9.65;4.50;;;0.70;99.90;;;;;;2088986;28;20498;-68
2021/04/24 01:39:06;;;;;;;9.68;5.45;;;0.70;99.90;;;;;;2088380;28;20185;-68
2021/04/24 01:40:11;;;;;;;9.63;5.00;;;0.70;99.90;;;;;;2088824;28;20181;-67
2021/04/24 01:41:12;;;;;;;9.73;4.60;;;0.60;99.90;;;;;;2088955;28;20183;-68
2021/04/24 01:42:13;;;;;;;13.40;4.90;;;0.60;99.90;;;;;;2089073;28;20199;-67
2021/04/24 01:43:14;;;;;;;8.53;4.80;;;0.60;99.90;;;;;;2096780;28;20265;-67
2021/04/24 01:44:15;;;;;;;7.82;4.78;;;0.60;99.90;;;;;;2096622;28;20642;-68
2021/04/24 01:45:19;;;;;;;10.47;4.60;;;0.60;99.90;;;;;;2088335;28;20173;-67
2021/04/24 01:46:21;;;;;;;11.35;4.25;;;0.60;99.90;;;;;;2080664;28;20190;-67
2021/04/24 01:47:21;;;;;;;8.23;4.68;;;0.60;99.90;;;;;;2088371;28;20680;-68
2021/04/24 01:48:22;;;;;;;12.67;5.30;;;0.60;99.90;;;;;;2088277;28;20176;-67
2021/04/24 01:49:23;;;;;;;10.13;4.97;;;0.50;99.90;;;;;;2089198;28;20261;-68
2021/04/24 01:50:29;;;;;;;7.40;4.30;;;0.50;99.90;;;;;;2089022;28;20244;-67
2021/04/24 01:51:30;;;;;;;8.57;4.50;;;0.50;99.90;;;;;;2088969;28;20661;-68
2021/04/24 01:52:36;;;;;;;8.47;4.67;;;0.50;99.90;;;;;;2089090;28;20266;-68
2021/04/24 01:53:38;;;;;;;9.27;4.38;;;0.50;99.90;;;;;;2088667;28;20172;-68
2021/04/24 01:54:38;;;;;;;7.72;4.78;;;0.50;99.90;;;;;;2080279;28;20265;-68
2021/04/24 01:55:40;;;;;;;8.47;4.57;;;0.40;99.90;;;;;;2088397;28;20178;-68
2021/04/24 01:56:55;;;;;;;8.70;5.07;;;0.40;99.90;;;;;;2088988;28;21045;-68
2021/04/24 01:57:57;;;;;;;10.85;4.88;;;0.40;99.90;;;;;;2089104;28;20259;-67
2021/04/24 01:58:58;;;;;;;11.02;4.82;;;0.40;99.90;;;;;;2088374;28;20189;-68
2021/04/24 01:59:59;;;;;;;8.40;4.47;;;0.40;99.90;;;;;;2088445;28;20178;-68
2021/04/24 02:01:08;;;;;;;10.83;5.20;;;0.40;99.90;;;;;;2089077;28;20179;-68
2021/04/24 02:02:08;;;;;;;8.75;5.15;;;0.40;99.90;;;;;;2089095;28;20414;-68
2021/04/24 02:03:13;;;;;;;10.03;5.00;;;0.30;99.90;;;;;;2089016;28;20189;-67
2021/04/24 02:04:15;;;;;;;9.80;5.18;;;0.40;99.90;;;;;;2088395;28;20219;-68
2021/04/24 02:05:16;;;;;;;9.90;5.15;;;0.30;99.90;;;;;;2088275;28;20175;-68
2021/04/24 02:06:17;;;;;;;9.82;5.30;;;0.30;99.90;;;;;;2088948;28;20541;-68
2021/04/24 02:07:18;;;;;;;9.53;5.20;;;0.30;99.90;;;;;;2088938;28;20182;-68
2021/04/24 02:08:22;;;;;;;14.27;5.20;;;0.30;99.90;;;;;;2088731;28;20182;-68
2021/04/24 02:09:24;;;;;;;8.65;5.22;;;0.30;99.90;;;;;;2082323;28;20176;-68
2021/04/24 02:10:27;;;;;;;9.85;5.13;;;0.30;99.90;;;;;;2090068;28;20225;-68
2021/04/24 02:11:28;;;;;;;12.63;4.57;;;0.30;99.90;;;;;;2090427;28;20183;-68
2021/04/24 02:12:29;;;;;;;8.80;4.83;;;0.30;99.90;;;;;;2089988;28;20233;-68
2021/04/24 02:13:42;;;;;;;9.20;5.07;;;0.30;99.90;;;;;;2090171;28;20731;-67
2021/04/24 02:14:49;;;;;;;10.20;4.90;;;0.30;99.90;;;;;;2090728;28;20194;-68
2021/04/24 02:15:50;;;;;;;7.45;4.53;;;0.30;99.90;;;;;;2090663;28;20179;-68
2021/04/24 02:16:51;;;;;;;9.10;4.88;;;0.30;99.90;;;;;;2090616;28;20206;-67
2021/04/24 02:17:52;;;;;;;10.23;4.88;;;0.30;99.90;;;;;;2089700;28;20741;-68
2021/04/24 02:18:53;;;;;;;12.73;6.40;;;0.20;99.90;;;;;;2089954;28;20182;-68
2021/04/24 02:19:54;;;;;;;11.90;4.87;;;0.20;99.90;;;;;;2090379;28;20418;-67
2021/04/24 02:20:55;;;;;;;11.82;6.00;;;0.20;99.90;;;;;;2089865;28;20184;-68
2021/04/24 02:21:56;;;;;;;8.63;4.70;;;0.20;99.90;;;;;;2089549;28;20836;-68
2021/04/24 02:22:57;;;;;;;14.60;5.68;;;0.20;99.90;;;;;;2089981;28;20179;-68
2021/04/24 02:23:58;;;;;;;9.00;5.30;;;0.30;99.90;;;;;;2090565;28;20592;-67
2021/04/24 02:25:04;;;;;;;10.00;5.20;;;0.20;99.90;;;;;;2090687;28;20208;-67
2021/04/24 02:26:07;;;;;;;10.32;4.93;;;0.20;99.90;;;;;;2089975;28;20171;-68
2021/04/24 02:27:29;;;;;;;10.07;5.03;;;0.20;99.90;;;;;;2089988;28;20747;-67
2021/04/24 02:28:30;;;;;;;10.13;5.47;;;0.20;99.90;;;;;;2088499;28;20241;-67
2021/04/24 02:29:31;;;;;;;8.83;4.77;;;0.20;99.90;;;;;;2090453;28;20221;-68
2021/04/24 02:30:32;;;;;;;10.07;5.53;;;0.10;99.90;;;;;;2090518;28;20270;-68
2021/04/24 02:31:33;;;;;;;8.60;5.22;;;0.10;99.90;;;;;;2090288;28;20261;-68
2021/04/24 02:32:34;;;;;;;11.57;4.83;;;0.10;99.90;;;;;;2090693;28;20784;-68
2021/04/24 02:33:35;;;;;;;8.68;4.90;;;0.10;99.90;;;;;;2090575;28;20213;-67
2021/04/24 02:34:43;;;;;;;10.13;5.07;;;0.10;99.90;;;;;;2090421;28;20572;-68
2021/04/24 02:35:53;;;;;;;9.43;5.38;;;0.10;99.90;;;;;;2089829;28;20166;-68
2021/04/24 02:36:54;;;;;;;11.18;5.30;;;0.00;99.90;;;;;;2089987;28;20167;-68
2021/04/24 02:37:54;;;;;;;9.57;4.97;;;0.00;99.90;;;;;;2089714;28;20562;-67
2021/04/24 02:38:55;;;;;;;10.63;5.10;;;0.00;99.90;;;;;;2090628;28;20269;-67
2021/04/24 02:39:56;;;;;;;11.97;5.17;;;0.00;99.90;;;;;;2090535;28;20252;-68
2021/04/24 02:41:00;;;;;;;8.53;4.63;;;0.00;99.90;;;;;;2090683;28;20183;-67
2021/04/24 02:42:07;;;;;;;9.18;4.95;;;0.00;99.90;;;;;;2090526;28;20175;-66
2021/04/24 02:43:07;;;;;;;11.50;5.53;;;0.00;99.90;;;;;;2090744;28;20178;-67
2021/04/24 02:44:08;;;;;;;9.37;5.10;;;-0.10;99.90;;;;;;2090072;28;20717;-67
2021/04/24 02:45:11;;;;;;;7.93;4.73;;;0.00;99.90;;;;;;2090059;28;20178;-67
2021/04/24 02:46:13;;;;;;;8.75;4.80;;;0.00;99.90;;;;;;2090665;28;20185;-67
2021/04/24 02:47:15;;;;;;;10.23;4.88;;;0.00;99.90;;;;;;2089919;28;20178;-67
2021/04/24 02:48:17;;;;;;;8.45;5.07;;;0.00;99.90;;;;;;2081633;28;20276;-68
2021/04/24 02:49:18;;;;;;;11.00;5.47;;;0.00;99.90;;;;;;2081926;28;20222;-68
2021/04/24 02:50:20;;;;;;;12.17;5.33;;;-0.10;99.90;;;;;;2089941;28;20209;-67
2021/04/24 02:51:20;;;;;;;8.85;4.88;;;-0.10;99.90;;;;;;2081706;28;20187;-67
2021/04/24 02:52:21;;;;;;;11.67;5.27;;;-0.10;99.90;;;;;;2089868;28;20206;-68
2021/04/24 02:53:22;;;;;;;9.07;5.33;;;-0.10;99.90;;;;;;2089940;28;20185;-68
2021/04/24 02:54:24;;;;;;;8.17;5.07;;;-0.10;99.90;;;;;;2089680;28;20542;-67
2021/04/24 02:55:25;;;;;;;10.15;5.03;;;-0.10;99.90;;;;;;2089906;28;20205;-67
2021/04/24 02:56:26;;;;;;;11.63;5.07;;;-0.10;99.90;;;;;;2090434;28;20181;-68
2021/04/24 02:57:27;;;;;;;10.60;5.50;;;-0.10;99.90;;;;;;2089599;28;20442;-67
2021/04/24 02:58:28;;;;;;;10.18;5.07;;;-0.10;99.90;;;;;;2081618;28;20257;-68
2021/04/24 02:59:28;;;;;;;11.90;5.10;;;-0.10;99.90;;;;;;2089604;28;20642;-68
2021/04/24 03:00:30;;;;;;;13.00;5.43;;;-0.10;99.90;;;;;;2089803;28;20270;-67
2021/04/24 03:01:31;;;;;;;11.77;5.53;;;-0.10;99.90;;;;;;2090147;28;21136;-68
2021/04/24 03:02:32;;;;;;;9.15;4.82;;;-0.10;99.90;;;;;;2090516;28;20218;-68
2021/04/24 03:03:33;;;;;;;10.95;5.07;;;-0.10;99.90;;;;;;2089678;28;20186;-68
2021/04/24 03:04:33;;;;;;;9.30;4.93;;;-0.10;99.90;;;;;;2092237;28;20630;-67
2021/04/24 03:05:35;;;;;;;8.00;4.47;;;-0.20;99.90;;;;;;2090260;28;20179;-68
2021/04/24 03:06:36;;;;;;;9.57;5.32;;;-0.20;99.90;;;;;;2090348;28;20266;-68
2021/04/24 03:07:37;;;;;;;8.17;4.97;;;-0.20;99.90;;;;;;2090172;28;20710;-68
2021/04/24 03:08:37;;;;;;;11.82;4.93;;;-0.20;99.90;;;;;;2090309;28;20197;-67
2021/04/24 03:09:38;;;;;;;9.70;4.67;;;-0.20;99.90;;;;;;2090295;28;20190;-67
2021/04/24 03:10:41;;;;;;;7.87;5.00;;;-0.20;99.90;;;;;;2089674;28;20189;-68
2021/04/24 03:11:43;;;;;;;11.07;5.15;;;-0.20;99.90;;;;;;2089387;28;20213;-67
2021/04/24 03:12:44;;;;;;;8.18;4.82;;;-0.20;99.90;;;;;;2090377;28;20180;-67
2021/04/24 03:13:44;;;;;;;10.53;4.90;;;-0.20;99.90;;;;;;2089644;28;20272;-68
2021/04/24 03:14:45;;;;;;;9.27;4.97;;;-0.20;99.90;;;;;;2089713;28;20205;-68
2021/04/24 03:15:46;;;;;;;9.23;4.97;;;-0.20;99.90;;;;;;2089452;28;20679;-68
2021/04/24 03:16:46;;;;;;;8.07;4.63;;;-0.20;99.90;;;;;;2089574;28;20268;-68
2021/04/24 03:17:48;;;;;;;10.57;4.80;;;-0.20;99.90;;;;;;2090083;28;20286;-68
2021/04/24 03:18:49;;;;;;;7.78;4.45;;;-0.20;99.90;;;;;;2090319;28;20182;-67
2021/04/24 03:19:50;;;;;;;11.00;5.35;;;-0.20;99.90;;;;;;2090349;28;20251;-67
2021/04/24 03:20:51;;;;;;;8.57;4.60;;;-0.20;99.90;;;;;;2089915;28;20226;-67
2021/04/24 03:21:51;;;;;;;8.33;5.17;;;-0.20;99.90;;;;;;2089935;28;20427;-68
2021/04/24 03:22:52;;;;;;;11.03;5.00;;;-0.20;99.90;;;;;;2090259;28;20175;-68
2021/04/24 03:23:54;;;;;;;11.43;5.20;;;-0.30;99.90;;;;;;2090144;28;20693;-67
2021/04/24 03:24:54;;;;;;;13.95;4.72;;;-0.30;99.90;;;;;;2089744;28;20183;-67
2021/04/24 03:25:55;;;;;;;9.13;5.20;;;-0.30;99.90;;;;;;2089508;28;20212;-67
2021/04/24 03:26:56;;;;;;;7.40;5.07;;;-0.30;99.90;;;;;;2090273;28;20250;-68
2021/04/24 03:27:56;;;;;;;10.53;5.60;;;-0.30;99.90;;;;;;2090092;28;20225;-68
2021/04/24 03:28:57;;;;;;;11.23;5.50;;;-0.30;99.90;;;;;;2090281;28;20178;-68
2021/04/24 03:29:58;;;;;;;9.60;5.13;;;-0.30;99.90;;;;;;2090036;28;20729;-68
2021/04/24 03:30:59;;;;;;;12.40;5.30;;;-0.30;99.90;;;;;;2090206;28;20446;-68
2021/04/24 03:32:00;;;;;;;10.00;5.00;;;-0.40;99.90;;;;;;2089907;28;20186;-67
2021/04/24 03:33:00;;;;;;;8.97;5.27;;;-0.30;99.90;;;;;;2090132;28;20186;-68
2021/04/24 03:34:01;;;;;;;8.33;4.83;;;-0.30;99.90;;;;;;2089945;28;20182;-68
2021/04/24 03:35:04;;;;;;;8.27;4.73;;;-0.40;99.90;;;;;;2090056;28;20221;-68
2021/04/24 03:36:06;;;;;;;8.90;4.53;;;-0.30;99.90;;;;;;2090012;28;20433;-67
2021/04/24 03:37:06;;;;;;;9.95;4.90;;;-0.40;99.90;;;;;;2089080;28;20182;-67
2021/04/24 03:38:07;;;;;;;9.47;4.73;;;-0.30;99.90;;;;;;2089500;28;20625;-68
2021/04/24 03:39:08;;;;;;;9.60;5.13;;;-0.30;99.90;;;;;;2089341;28;20187;-67
2021/04/24 03:40:09;;;;;;;8.50;5.07;;;-0.30;99.90;;;;;;2089551;28;20207;-68
2021/04/24 03:41:11;;;;;;;11.75;5.53;;;-0.30;99.90;;;;;;2089919;28;20688;-67
2021/04/24 03:42:13;;;;;;;12.32;4.82;;;-0.30;99.90;;;;;;2090022;28;20189;-68
2021/04/24 03:43:14;;;;;;;9.70;4.65;;;-0.30;99.90;;;;;;2090005;28;20246;-67
2021/04/24 03:44:15;;;;;;;7.93;4.77;;;-0.30;99.90;;;;;;2089418;28;20190;-68
2021/04/24 03:45:19;;;;;;;9.23;5.03;;;-0.30;99.90;;;;;;2089321;28;20686;-68
2021/04/24 03:46:20;;;;;;;9.55;5.47;;;-0.30;99.90;;;;;;2090079;28;20262;-68
2021/04/24 03:47:21;;;;;;;9.13;5.47;;;-0.30;99.90;;;;;;2089881;28;20218;-68
2021/04/24 03:48:21;;;;;;;8.77;4.50;;;-0.30;99.90;;;;;;2089959;28;20205;-67
2021/04/24 03:49:22;;;;;;;10.17;4.80;;;-0.30;99.90;;;;;;2089905;28;20219;-68
2021/04/24 03:50:25;;;;;;;11.17;4.73;;;-0.30;99.90;;;;;;2090160;28;20174;-68
2021/04/24 03:51:25;;;;;;;9.05;5.30;;;-0.40;99.90;;;;;;2088961;28;20181;-68
2021/04/24 03:52:26;;;;;;;11.90;5.37;;;-0.40;99.90;;;;;;2089368;28;20672;-68
2021/04/24 03:53:28;;;;;;;9.77;5.53;;;-0.40;99.90;;;;;;2089871;28;20168;-68
2021/04/24 03:54:28;;;;;;;9.52;4.68;;;-0.40;99.90;;;;;;2089214;28;20178;-67
2021/04/24 03:55:29;;;;;;;13.53;6.00;;;-0.40;99.90;;;;;;2089181;28;20239;-68
2021/04/24 03:56:30;;;;;;;8.80;4.70;;;-0.50;99.90;;;;;;2089849;28;20260;-68
2021/04/24 03:57:30;;;;;;;11.20;5.50;;;-0.50;99.90;;;;;;2089685;28;20673;-67
2021/04/24 03:58:31;;;;;;;9.70;4.97;;;-0.50;99.90;;;;;;2089684;28;20226;-67
2021/04/24 03:59:32;;;;;;;8.87;4.90;;;-0.50;99.90;;;;;;2089912;28;20214;-67
2021/04/24 04:00:33;;;;;;;10.47;4.90;;;-0.50;99.90;;;;;;2089862;28;20575;-67
2021/04/24 04:01:35;;;;;;;11.52;5.32;;;-0.50;99.90;;;;;;2089390;28;20175;-68
2021/04/24 04:02:44;;;;;;;8.77;5.00;;;-0.50;99.90;;;;;;2089754;28;20187;-67
2021/04/24 04:03:45;;;;;;;10.35;5.35;;;-0.50;99.90;;;;;;2089673;28;20160;-67
2021/04/24 04:04:47;;;;;;;8.53;4.70;;;-0.50;99.90;;;;;;2089846;28;20647;-67
2021/04/24 04:05:48;;;;;;;7.97;4.65;;;-0.60;99.90;;;;;;2089790;28;20208;-68
2021/04/24 04:06:49;;;;;;;9.90;4.90;;;-0.50;99.90;;;;;;2089016;28;20214;-66
2021/04/24 04:07:50;;;;;;;9.73;4.70;;;-0.50;99.90;;;;;;2088934;28;20292;-67
2021/04/24 04:08:50;;;;;;;10.37;4.87;;;-0.50;99.90;;;;;;2089617;28;20329;-68
2021/04/24 04:09:51;;;;;;;18.23;5.60;;;-0.50;99.90;;;;;;2089680;28;20178;-67
2021/04/24 04:10:52;;;;;;;8.30;5.20;;;-0.50;99.90;;;;;;2089874;28;20524;-67
2021/04/24 04:11:52;;;;;;;9.43;5.07;;;-0.60;99.90;;;;;;2089588;28;20253;-67
2021/04/24 04:12:55;;;;;;;13.00;5.93;;;-0.60;99.90;;;;;;2089169;28;20186;-67
2021/04/24 04:13:56;;;;;;;11.05;5.22;;;-0.50;99.90;;;;;;2089144;28;20260;-67
2021/04/24 04:14:57;;;;;;;10.70;5.10;;;-0.60;99.90;;;;;;2089505;28;20268;-68
2021/04/24 04:15:58;;;;;;;8.37;5.33;;;-0.50;99.90;;;;;;2089645;28;20282;-68
2021/04/24 04:16:58;;;;;;;8.10;4.83;;;-0.50;99.90;;;;;;2089681;28;20205;-67
2021/04/24 04:18:05;;;;;;;10.97;5.30;;;-0.50;99.90;;;;;;2089552;28;20199;-67
2021/04/24 04:19:06;;;;;;;9.30;5.07;;;-0.50;99.90;;;;;;2089119;28;20165;-68
2021/04/24 04:20:09;;;;;;;8.17;4.80;;;-0.50;99.90;;;;;;2080668;28;20193;-67
2021/04/24 04:21:10;;;;;;;11.00;5.47;;;-0.50;99.90;;;;;;2081101;28;20202;-68
2021/04/24 04:22:11;;;;;;;9.93;4.63;;;-0.50;99.90;;;;;;2088898;28;20895;-68
2021/04/24 04:23:12;;;;;;;12.20;5.73;;;-0.50;99.90;;;;;;2089549;28;20267;-67
2021/04/24 04:24:13;;;;;;;8.95;5.30;;;-0.50;99.90;;;;;;2089471;28;20529;-67
2021/04/24 04:25:15;;;;;;;8.10;4.80;;;-0.50;99.90;;;;;;2089545;28;20253;-67
2021/04/24 04:26:16;;;;;;;11.65;5.43;;;-0.50;99.90;;;;;;2089591;28;20264;-67
2021/04/24 04:27:17;;;;;;;11.40;5.13;;;-0.50;99.90;;;;;;2089577;28;20190;-68
2021/04/24 04:28:19;;;;;;;9.10;5.07;;;-0.50;99.90;;;;;;2089466;28;20220;-67
2021/04/24 04:29:20;;;;;;;11.50;5.10;;;-0.50;99.90;;;;;;2089718;28;20209;-67
2021/04/24 04:30:23;;;;;;;10.83;4.83;;;-0.50;99.90;;;;;;2089379;28;20747;-68
2021/04/24 04:31:23;;;;;;;12.65;5.60;;;-0.50;99.90;;;;;;2088402;28;20193;-68
2021/04/24 04:32:24;;;;;;;13.13;5.23;;;-0.60;99.90;;;;;;2087986;28;20209;-67
2021/04/24 04:33:25;;;;;;;12.00;5.27;;;-0.60;99.90;;;;;;2089740;28;20372;-67
2021/04/24 04:34:26;;;;;;;9.48;5.10;;;-0.60;99.90;;;;;;2089439;28;20268;-67
2021/04/24 04:35:27;;;;;;;11.60;5.70;;;-0.60;99.90;;;;;;2089500;28;20185;-68
2021/04/24 04:36:28;;;;;;;8.73;4.78;;;-0.60;99.90;;;;;;2089567;28;20272;-67
2021/04/24 04:37:29;;;;;;;8.33;4.50;;;-0.60;99.90;;;;;;2088575;28;20277;-67
2021/04/24 04:38:30;;;;;;;9.47;4.83;;;-0.60;99.90;;;;;;2089035;28;20171;-68
2021/04/24 04:39:31;;;;;;;11.23;4.65;;;-0.60;99.90;;;;;;2088756;28;20185;-68
2021/04/24 04:40:32;;;;;;;8.20;4.40;;;-0.60;99.90;;;;;;2088792;28;20205;-67
2021/04/24 04:41:33;;;;;;;10.30;4.97;;;-0.60;99.90;;;;;;2089145;28;20239;-68
2021/04/24 04:42:34;;;;;;;9.23;4.73;;;-0.60;99.90;;;;;;2089540;28;20186;-68
2021/04/24 04:43:35;;;;;;;10.13;4.72;;;-0.60;99.90;;;;;;2088898;28;20178;-67
2021/04/24 04:44:35;;;;;;;12.65;4.70;;;-0.60;99.90;;;;;;2088983;28;20295;-68
2021/04/24 04:45:37;;;;;;;9.20;5.00;;;-0.60;99.90;;;;;;2089516;28;20185;-67
2021/04/24 04:46:37;;;;;;;15.43;6.07;;;-0.60;99.90;;;;;;2089386;28;20254;-67
2021/04/24 04:47:38;;;;;;;13.17;4.80;;;-0.50;99.90;;;;;;2089272;28;20237;-67
2021/04/24 04:48:39;;;;;;;8.52;4.82;;;-0.50;99.90;;;;;;2088790;28;20195;-67
2021/04/24 04:49:39;;;;;;;11.50;5.37;;;-0.50;99.90;;;;;;2088607;28;20558;-67
2021/04/24 04:50:41;;;;;;;8.83;5.07;;;-0.50;99.90;;;;;;2089312;28;20247;-67
2021/04/24 04:51:42;;;;;;;10.18;4.65;;;-0.40;99.90;;;;;;2088939;28;20191;-67
2021/04/24 04:52:43;;;;;;;8.83;5.27;;;-0.40;99.90;;;;;;2089205;28;20321;-67
2021/04/24 04:53:44;;;;;;;9.25;4.78;;;-0.40;99.90;;;;;;2089033;28;20677;-67
2021/04/24 04:54:45;;;;;;;9.88;5.05;;;-0.40;99.90;;;;;;2089106;28;20206;-67
2021/04/24 04:55:46;;;;;;;10.35;5.00;;;-0.30;99.90;;;;;;2089139;28;20185;-67
2021/04/24 04:56:46;;;;;;;9.03;5.20;;;-0.30;99.90;;;;;;2089276;28;20270;-67
2021/04/24 04:57:47;;;;;;;10.13;5.47;;;-0.30;99.90;;;;;;2089029;28;20206;-67
2021/04/24 04:58:49;;;;;;;9.03;5.67;;;-0.30;99.90;;;;;;2089283;28;20625;-67
2021/04/24 04:59:50;;;;;;;10.27;5.20;;;-0.30;99.90;;;;;;2089280;28;20181;-68
2021/04/24 05:00:50;;;;;;;10.10;5.30;;;-0.30;99.90;;;;;;2089151;28;20187;-67
2021/04/24 05:01:51;;;;;;;13.03;5.20;;;-0.20;99.90;;;;;;2088951;28;20294;-67
2021/04/24 05:02:52;;;;;;;11.30;5.60;;;-0.20;99.90;;;;;;2089261;28;20218;-67
2021/04/24 05:03:52;;;;;;;9.67;5.93;;;-0.20;99.90;;;;;;2089107;28;20601;-68
2021/04/24 05:04:53;;;;;;;10.63;5.00;;;-0.20;99.90;;;;;;2089179;28;20191;-67
2021/04/24 05:05:54;;;;;;;11.10;5.13;;;-0.10;99.90;;;;;;2089135;28;20191;-67
2021/04/24 05:06:54;;;;;;;8.90;5.30;;;-0.10;99.90;;;;;;2088697;28;20690;-68
2021/04/24 05:07:55;;;;;;;8.27;4.73;;;-0.10;99.90;;;;;;2088311;28;20577;-67
2021/04/24 05:08:56;;;;;;;7.27;5.07;;;-0.10;99.90;;;;;;2089247;28;20189;-67
2021/04/24 05:09:56;;;;;;;10.57;4.73;;;-0.10;99.90;;;;;;2089103;28;20186;-68
2021/04/24 05:10:57;;;;;;;8.30;5.03;;;-0.10;99.90;;;;;;2089146;28;20562;-68
2021/04/24 05:11:58;;;;;;;6.17;3.90;;;0.00;99.90;;;;;;2091078;28;20183;-67
2021/04/24 05:12:59;;;;;;;9.07;4.90;;;0.00;99.90;;;;;;2089460;28;20190;-67
2021/04/24 05:13:59;;;;;;;7.40;4.80;;;0.00;99.90;;;;;;2088464;28;20668;-68
2021/04/24 05:15:00;;;;;;;10.13;5.03;;;0.00;99.90;;;;;;2088379;28;20206;-67
2021/04/24 05:16:01;;;;;;;12.30;5.70;;;0.00;99.90;;;;;;2088398;28;20224;-67
2021/04/24 05:17:06;;;;;;;8.17;4.73;;;0.00;99.90;;;;;;2080188;28;20360;-67
2021/04/24 05:18:06;;;;;;;7.90;4.97;;;0.00;99.90;;;;;;2088588;28;20177;-68
2021/04/24 05:19:08;;;;;;;7.70;4.60;;;0.10;99.90;;;;;;2088271;28;20194;-67
2021/04/24 05:20:09;;;;;;;10.65;4.80;;;0.10;99.90;;;;;;2080401;28;20670;-67
2021/04/24 05:21:11;;;;;;;8.43;5.07;;;0.10;99.90;;;;;;2088448;28;20304;-67